Havre St Pierre Airport


Codes: CYGV/YGV
Name: Havre St Pierre Airport
City: Havre St-Pierre
Country: Canada
Elevation: 124 ft.
Wikipedia:

Photos at Havre St Pierre Airport


   Photos courtesy of SpottingLog. You can add your own sightings and photos by signing up for a free trial today.



No photos found.

Weather at Havre St Pierre Airport


Time (UTC)DescriptionTempratureWindCloud coverageVisibilityPressureHumidity
21-Jun-2024 12:00Few Clouds15°C16 mph, 17%10000m1017hPa54%
21-Jun-2024 15:00Few Clouds15°C16 mph, W24%10000m1017hPa52%
21-Jun-2024 18:00Few Clouds16°C18 mph, W20%10000m1016hPa49%
21-Jun-2024 21:00Broken Clouds18°C16 mph, W57%10000m1014hPa48%
22-Jun-2024 00:00Scattered Clouds16°C11 mph, NW50%10000m1015hPa48%
22-Jun-2024 03:00Clear Sky13°C7 mph, NW2%10000m1016hPa58%
22-Jun-2024 06:00Scattered Clouds13°C7 mph, SW36%10000m1016hPa71%
22-Jun-2024 09:00Broken Clouds12°C7 mph, W79%10000m1015hPa76%
22-Jun-2024 12:00Broken Clouds15°C9 mph, W64%10000m1015hPa71%
22-Jun-2024 15:00Few Clouds15°C18 mph, SW19%10000m1014hPa73%
22-Jun-2024 18:00Scattered Clouds16°C20 mph, W29%10000m1012hPa68%
22-Jun-2024 21:00Few Clouds17°C13 mph, W11%10000m1012hPa65%
23-Jun-2024 00:00Clear Sky14°C9 mph, SW9%10000m1011hPa81%
23-Jun-2024 03:00Scattered Clouds13°C7 mph, SW41%10000m1010hPa86%
23-Jun-2024 06:00Light Rain12°C9 mph, W50%10000m1009hPa92%
23-Jun-2024 09:00Scattered Clouds12°C9 mph, W48%10000m1008hPa93%
23-Jun-2024 12:00Scattered Clouds15°C11 mph, SW28%10000m1008hPa85%
23-Jun-2024 15:00Broken Clouds16°C16 mph, SW79%4765m1006hPa80%
23-Jun-2024 18:00Overcast Clouds16°C16 mph, SW90%6746m1005hPa78%
23-Jun-2024 21:00Overcast Clouds16°C13 mph, W100%10000m1005hPa76%
24-Jun-2024 00:00Overcast Clouds14°C9 mph, W100%6010m1005hPa89%
24-Jun-2024 03:00Overcast Clouds14°C7 mph, NW100%10000m1006hPa86%
24-Jun-2024 06:00Broken Clouds13°C9 mph, NE82%10000m1007hPa73%
24-Jun-2024 09:00Clear Sky11°C11 mph, NE3%10000m1008hPa61%
24-Jun-2024 12:00Clear Sky15°C9 mph, E3%10000m1010hPa53%
24-Jun-2024 15:00Clear Sky16°C9 mph, SE0%10000m1010hPa59%
24-Jun-2024 18:00Clear Sky16°C9 mph, S1%10000m1009hPa62%
24-Jun-2024 21:00Scattered Clouds16°C7 mph, S29%10000m1009hPa73%
25-Jun-2024 00:00Broken Clouds13°C0 mph, SW55%10000m1009hPa83%
25-Jun-2024 03:00Overcast Clouds13°C7 mph, SW92%10000m1010hPa82%
25-Jun-2024 06:00Broken Clouds12°C2 mph, N82%10000m1010hPa86%
25-Jun-2024 09:00Overcast Clouds13°C0 mph, NE100%10000m1009hPa87%
25-Jun-2024 12:00Overcast Clouds15°C2 mph, E100%10000m1009hPa78%
25-Jun-2024 15:00Overcast Clouds17°C7 mph, S100%5463m1008hPa75%
25-Jun-2024 18:00Overcast Clouds17°C7 mph, S97%4998m1007hPa73%
25-Jun-2024 21:00Broken Clouds17°C9 mph, SW69%4829m1006hPa73%
26-Jun-2024 00:00Scattered Clouds14°C4 mph, SW47%10000m1007hPa81%
26-Jun-2024 03:00Clear Sky14°C7 mph, W1%10000m1007hPa79%
26-Jun-2024 06:00Clear Sky13°C4 mph, S1%10000m1006hPa83%
26-Jun-2024 09:00Clear Sky13°C4 mph, SW5%10000m1007hPa83%